Time;durP1;ratioP1;P1;durP2;ratioP2;P2;SDS_P1;SDS_P2;PMS_P1;PMS_P2;Temp;Humidity;BMP_temperature;BMP_pressure;BME280_temperature;BME280_humidity;BME280_pressure;Samples;Min_cycle;Max_cycle;Signal;HPM_P1;HPM_P2
2022/03/05 00:01:57;;;;;;;4.80;4.00;;;21.90;45.40;;;;;;5048367;28;20103;-62
2022/03/05 00:04:26;;;;;;;3.17;2.97;;;21.80;45.50;;;;;;5049877;28;20041;-60
2022/03/05 00:06:53;;;;;;;3.60;3.40;;;21.80;45.70;;;;;;5048731;28;20052;-60
2022/03/05 00:09:20;;;;;;;3.67;3.38;;;21.80;45.80;;;;;;5047756;28;20504;-60
2022/03/05 00:11:47;;;;;;;3.35;3.13;;;21.70;45.80;;;;;;5048557;28;20120;-59
2022/03/05 00:14:15;;;;;;;3.30;3.03;;;21.70;45.90;;;;;;5048817;28;20032;-60
2022/03/05 00:16:42;;;;;;;3.15;2.90;;;21.60;46.00;;;;;;5049363;28;20094;-60
2022/03/05 00:19:10;;;;;;;3.55;3.25;;;21.60;46.10;;;;;;5047990;28;20397;-60
2022/03/05 00:21:38;;;;;;;3.70;3.50;;;21.60;46.20;;;;;;5047871;28;20045;-59
2022/03/05 00:24:07;;;;;;;2.63;2.50;;;21.50;46.20;;;;;;5047864;28;20453;-59
2022/03/05 00:26:34;;;;;;;3.67;3.38;;;21.50;46.40;;;;;;5047722;28;20041;-61
2022/03/05 00:29:01;;;;;;;4.45;3.55;;;21.50;46.50;;;;;;5048407;28;20094;-62
2022/03/05 00:31:28;;;;;;;3.28;3.08;;;21.40;46.50;;;;;;5048842;28;20045;-61
2022/03/05 00:33:56;;;;;;;3.00;2.80;;;21.40;46.60;;;;;;5047958;28;20041;-63
2022/03/05 00:36:23;;;;;;;4.65;4.25;;;21.40;46.70;;;;;;5047733;28;20048;-60
2022/03/05 00:38:51;;;;;;;2.97;2.78;;;21.40;46.80;;;;;;5046057;28;20036;-61
2022/03/05 00:41:18;;;;;;;3.28;3.08;;;21.30;46.80;;;;;;5045905;28;20045;-59
2022/03/05 00:43:45;;;;;;;4.35;4.05;;;21.30;46.90;;;;;;5050448;28;20207;-64
2022/03/05 00:46:12;;;;;;;3.47;3.17;;;21.30;47.10;;;;;;5047593;28;20053;-58
2022/03/05 00:48:40;;;;;;;3.42;3.22;;;21.20;47.00;;;;;;5047170;28;20052;-58
2022/03/05 00:51:07;;;;;;;2.53;2.33;;;21.20;47.10;;;;;;5047263;28;20057;-59
2022/03/05 00:53:34;;;;;;;3.80;3.45;;;21.20;47.20;;;;;;5048570;28;20140;-59
2022/03/05 00:56:03;;;;;;;3.47;3.28;;;21.20;47.30;;;;;;5048717;28;20152;-60
2022/03/05 00:58:30;;;;;;;4.18;3.80;;;21.20;47.20;;;;;;5047642;28;20495;-58
2022/03/05 01:00:57;;;;;;;3.38;3.13;;;21.10;47.20;;;;;;5047422;28;20037;-55
2022/03/05 01:03:24;;;;;;;3.25;2.92;;;21.20;47.30;;;;;;5047697;28;20037;-56
2022/03/05 01:05:53;;;;;;;2.70;2.50;;;21.10;47.30;;;;;;5047228;28;20501;-57
2022/03/05 01:08:20;;;;;;;3.58;3.30;;;21.10;47.30;;;;;;5040656;28;20381;-58
2022/03/05 01:10:47;;;;;;;3.15;2.95;;;21.10;47.40;;;;;;5048190;28;20506;-54
2022/03/05 01:13:18;;;;;;;3.40;3.20;;;21.10;47.50;;;;;;5048219;28;20051;-58
2022/03/05 01:15:45;;;;;;;3.38;3.10;;;21.10;47.50;;;;;;5042579;28;20072;-58
2022/03/05 01:18:12;;;;;;;3.97;3.65;;;21.00;47.40;;;;;;5047250;28;20474;-58
2022/03/05 01:20:39;;;;;;;4.10;3.72;;;21.00;47.40;;;;;;5045790;28;20045;-59
2022/03/05 01:23:07;;;;;;;4.35;3.60;;;21.00;47.50;;;;;;5046962;28;20130;-57
2022/03/05 01:25:34;;;;;;;3.65;3.35;;;21.00;47.50;;;;;;5048425;28;20056;-58
2022/03/05 01:28:03;;;;;;;3.50;3.33;;;21.00;47.50;;;;;;5046899;28;20083;-57
2022/03/05 01:30:32;;;;;;;4.13;3.75;;;20.90;47.50;;;;;;5046119;28;20110;-57
2022/03/05 01:32:59;;;;;;;3.65;3.35;;;20.90;47.60;;;;;;5045618;28;20141;-57
2022/03/05 01:35:27;;;;;;;3.30;3.10;;;20.90;47.60;;;;;;5046630;28;20130;-57
2022/03/05 01:37:54;;;;;;;3.78;3.58;;;20.90;47.50;;;;;;5044260;28;20791;-57
2022/03/05 01:40:21;;;;;;;4.35;3.97;;;20.90;47.50;;;;;;5047590;28;20176;-57
2022/03/05 01:42:48;;;;;;;2.70;2.50;;;20.90;48.10;;;;;;5046519;28;20129;-55
2022/03/05 01:45:15;;;;;;;2.58;2.38;;;20.90;47.60;;;;;;5039619;28;20108;-57
2022/03/05 01:47:45;;;;;;;3.45;3.20;;;20.90;47.60;;;;;;5039712;28;20037;-57
2022/03/05 01:50:12;;;;;;;3.00;2.80;;;20.90;47.70;;;;;;5045682;28;20118;-53
2022/03/05 01:52:39;;;;;;;4.35;3.63;;;20.90;47.70;;;;;;5047045;28;20044;-56
2022/03/05 01:55:07;;;;;;;3.70;3.47;;;20.80;47.60;;;;;;5045042;28;20441;-59
2022/03/05 01:57:35;;;;;;;4.07;3.83;;;20.80;47.70;;;;;;5040485;28;20029;-59
2022/03/05 02:00:04;;;;;;;3.80;3.30;;;20.80;47.80;;;;;;5039501;28;20128;-59
2022/03/05 02:02:38;;;;;;;;;;;20.80;47.80;;;;;;5040497;28;20124;-59
2022/03/05 02:05:09;;;;;;;3.45;3.25;;;20.70;47.70;;;;;;5045948;28;19963;-60
2022/03/05 02:07:37;;;;;;;3.72;3.47;;;20.70;48.00;;;;;;5047667;28;20582;-60
2022/03/05 02:10:05;;;;;;;5.30;3.55;;;20.70;48.00;;;;;;5046111;28;20053;-60
2022/03/05 02:12:35;;;;;;;4.15;3.70;;;20.70;48.00;;;;;;5045629;28;20029;-60
2022/03/05 02:15:03;;;;;;;3.92;3.42;;;20.70;48.00;;;;;;5046025;28;20573;-60
2022/03/05 02:17:31;;;;;;;4.22;3.88;;;20.70;47.90;;;;;;5046212;28;20112;-61
2022/03/05 02:19:58;;;;;;;4.60;4.20;;;20.70;47.90;;;;;;5045582;28;20056;-61
2022/03/05 02:22:27;;;;;;;4.07;3.78;;;20.70;48.00;;;;;;5046070;28;20584;-61
2022/03/05 02:24:55;;;;;;;4.68;4.22;;;20.70;48.10;;;;;;5045802;28;20037;-60
2022/03/05 02:27:24;;;;;;;8.93;4.65;;;20.70;48.10;;;;;;5044312;28;20056;-60
2022/03/05 02:29:52;;;;;;;4.78;4.45;;;20.70;48.20;;;;;;5045638;28;20410;-60
2022/03/05 02:32:20;;;;;;;5.43;4.05;;;20.70;48.20;;;;;;5040308;28;20520;-59
2022/03/05 02:34:47;;;;;;;4.38;3.42;;;20.70;48.20;;;;;;5043252;28;20056;-61
2022/03/05 02:37:16;;;;;;;3.72;3.53;;;20.70;48.20;;;;;;5044984;28;20143;-61
2022/03/05 02:39:45;;;;;;;4.70;4.30;;;20.70;48.20;;;;;;5042485;28;20128;-60
2022/03/05 02:42:14;;;;;;;4.70;4.28;;;20.60;48.20;;;;;;5045091;28;20045;-60
2022/03/05 02:44:41;;;;;;;4.28;3.88;;;20.60;48.20;;;;;;5060842;28;20144;-61
2022/03/05 02:47:08;;;;;;;4.70;4.30;;;20.60;48.20;;;;;;5044901;28;20055;-60
2022/03/05 02:49:36;;;;;;;4.65;3.42;;;20.60;48.20;;;;;;5045432;28;20537;-61
2022/03/05 02:52:03;;;;;;;4.25;3.88;;;20.60;48.20;;;;;;5045338;28;20417;-60
2022/03/05 02:54:30;;;;;;;3.33;3.10;;;20.60;48.30;;;;;;5044988;28;20413;-60
2022/03/05 02:56:59;;;;;;;4.60;4.22;;;20.60;48.30;;;;;;5044886;28;20049;-60
2022/03/05 02:59:27;;;;;;;4.18;3.88;;;20.60;48.30;;;;;;5045241;28;20045;-61
2022/03/05 03:01:54;;;;;;;4.05;3.65;;;20.60;48.30;;;;;;5045723;28;20127;-60
2022/03/05 03:04:21;;;;;;;4.45;4.15;;;20.60;48.30;;;;;;5046157;28;20041;-58
2022/03/05 03:06:50;;;;;;;4.05;3.75;;;20.60;48.30;;;;;;5044874;28;20537;-59
2022/03/05 03:09:17;;;;;;;4.72;4.32;;;20.60;48.30;;;;;;5038651;28;20052;-60
2022/03/05 03:11:44;;;;;;;5.03;4.72;;;20.60;48.90;;;;;;5044831;28;20045;-59
2022/03/05 03:14:13;;;;;;;4.65;4.07;;;20.60;48.90;;;;;;5043942;28;20103;-60
2022/03/05 03:16:40;;;;;;;5.10;4.07;;;20.60;48.50;;;;;;5045837;28;20164;-60
2022/03/05 03:19:07;;;;;;;5.10;3.65;;;20.50;48.30;;;;;;5043859;28;20131;-60
2022/03/05 03:21:34;;;;;;;4.07;3.78;;;20.50;48.40;;;;;;5044746;28;20118;-60
2022/03/05 03:24:01;;;;;;;5.63;5.13;;;20.50;48.40;;;;;;5045165;28;20053;-60
2022/03/05 03:26:28;;;;;;;3.42;3.22;;;20.50;48.40;;;;;;5044574;28;20049;-58
2022/03/05 03:28:55;;;;;;;3.42;3.22;;;20.50;48.40;;;;;;5045715;28;20056;-61
2022/03/05 03:31:24;;;;;;;5.00;4.60;;;20.60;48.50;;;;;;5045448;28;20115;-60
2022/03/05 03:33:51;;;;;;;4.35;3.70;;;20.50;48.40;;;;;;5046595;28;20043;-60
2022/03/05 03:36:18;;;;;;;3.10;2.90;;;20.50;48.40;;;;;;5048694;28;20551;-59
2022/03/05 03:38:45;;;;;;;4.22;3.80;;;20.60;48.50;;;;;;5045781;28;20044;-60
2022/03/05 03:41:12;;;;;;;4.50;4.07;;;20.50;48.40;;;;;;5048217;28;20124;-60
2022/03/05 03:43:39;;;;;;;4.03;3.72;;;20.50;48.40;;;;;;5050397;28;20045;-59
2022/03/05 03:46:06;;;;;;;3.75;3.45;;;20.50;48.40;;;;;;5048579;28;20049;-60
2022/03/05 03:48:35;;;;;;;4.22;3.90;;;20.50;49.00;;;;;;5048395;28;20075;-59
2022/03/05 03:51:02;;;;;;;4.25;3.95;;;20.50;49.00;;;;;;5048298;28;20056;-60
2022/03/05 03:53:29;;;;;;;3.95;3.72;;;20.50;48.50;;;;;;5048392;28;20043;-57
2022/03/05 03:55:56;;;;;;;5.72;4.15;;;20.40;48.40;;;;;;5047784;28;20573;-58
2022/03/05 03:58:23;;;;;;;4.50;4.10;;;20.50;48.40;;;;;;5048673;28;20152;-57
2022/03/05 04:00:50;;;;;;;3.63;3.40;;;20.40;48.40;;;;;;5048214;28;20115;-57
2022/03/05 04:03:17;;;;;;;3.05;2.70;;;20.50;48.40;;;;;;5048220;28;20037;-55
2022/03/05 04:05:46;;;;;;;3.55;3.25;;;20.50;48.40;;;;;;5048201;28;20037;-59
2022/03/05 04:10:57;;;;;;;3.13;2.83;;;20.40;48.90;;;;;;5048511;28;20049;-59
2022/03/05 04:13:24;;;;;;;3.00;2.80;;;20.40;48.40;;;;;;5048537;28;20051;-61
2022/03/05 04:15:51;;;;;;;5.82;3.38;;;20.40;48.40;;;;;;5048132;28;20029;-60
2022/03/05 04:18:18;;;;;;;3.75;3.42;;;20.40;48.40;;;;;;5047789;28;20037;-61
2022/03/05 04:20:47;;;;;;;3.15;2.95;;;20.40;49.00;;;;;;5048430;28;20041;-59
2022/03/05 04:23:14;;;;;;;4.55;3.47;;;20.40;48.40;;;;;;5047253;28;20136;-59
2022/03/05 04:25:42;;;;;;;2.95;2.75;;;20.40;48.40;;;;;;5049686;28;20051;-60
2022/03/05 04:28:09;;;;;;;3.90;3.42;;;20.40;48.40;;;;;;5046615;28;20037;-61
2022/03/05 04:30:36;;;;;;;5.00;2.88;;;20.40;48.50;;;;;;5047699;28;20045;-60
2022/03/05 04:33:03;;;;;;;3.33;3.03;;;20.40;48.40;;;;;;5047654;28;20068;-59
2022/03/05 04:35:30;;;;;;;3.33;3.03;;;20.40;48.40;;;;;;5047690;28;20509;-59
2022/03/05 04:37:59;;;;;;;3.30;3.00;;;20.40;48.40;;;;;;5044548;28;20328;-59
2022/03/05 04:40:26;;;;;;;2.22;2.13;;;20.40;48.40;;;;;;5048835;28;20049;-58
2022/03/05 04:42:53;;;;;;;3.28;3.08;;;20.40;48.40;;;;;;5047679;28;20044;-53
2022/03/05 04:45:20;;;;;;;3.15;2.70;;;20.40;48.40;;;;;;5046801;28;20156;-61
2022/03/05 04:47:48;;;;;;;3.25;3.05;;;20.40;48.40;;;;;;5047443;28;20037;-61
2022/03/05 04:50:15;;;;;;;3.05;2.72;;;20.40;48.50;;;;;;5047197;28;20060;-60
2022/03/05 04:52:42;;;;;;;2.35;2.20;;;20.40;48.40;;;;;;5048524;28;20033;-60
2022/03/05 04:55:11;;;;;;;3.03;2.83;;;20.40;48.40;;;;;;5046944;28;20045;-60
2022/03/05 04:57:38;;;;;;;3.92;2.80;;;20.40;48.50;;;;;;5047133;28;20033;-59
2022/03/05 05:00:08;;;;;;;2.97;2.42;;;20.30;48.40;;;;;;5047544;28;20063;-60
2022/03/05 05:02:35;;;;;;;2.83;2.63;;;20.30;48.30;;;;;;5046646;28;20085;-60
2022/03/05 05:05:02;;;;;;;3.17;2.88;;;20.30;48.30;;;;;;5047783;28;20037;-60
2022/03/05 05:07:29;;;;;;;2.75;2.50;;;20.40;48.40;;;;;;5047751;28;20037;-60
2022/03/05 05:09:56;;;;;;;2.60;2.47;;;20.30;48.30;;;;;;5046374;28;20087;-60
2022/03/05 05:12:25;;;;;;;2.78;2.58;;;20.30;48.30;;;;;;5046828;28;20036;-60
2022/03/05 05:14:52;;;;;;;2.60;2.35;;;20.30;48.20;;;;;;5046928;28;20858;-59
2022/03/05 05:17:19;;;;;;;2.42;2.33;;;20.30;48.20;;;;;;5046852;28;20032;-60
2022/03/05 05:19:46;;;;;;;3.15;2.95;;;20.30;48.20;;;;;;5048336;28;20099;-60
2022/03/05 05:22:13;;;;;;;2.95;2.75;;;20.30;48.20;;;;;;5045979;28;20572;-64
2022/03/05 05:24:40;;;;;;;3.00;2.80;;;20.30;48.20;;;;;;5046000;28;20036;-60
2022/03/05 05:27:08;;;;;;;4.38;3.17;;;20.30;48.20;;;;;;5046309;28;20045;-59
2022/03/05 05:29:36;;;;;;;3.47;2.33;;;20.30;48.20;;;;;;5046423;28;20033;-60
2022/03/05 05:32:03;;;;;;;3.67;2.47;;;20.30;48.80;;;;;;5062195;28;20045;-59
2022/03/05 05:34:30;;;;;;;5.97;2.95;;;20.30;48.20;;;;;;5048018;28;20469;-59
2022/03/05 05:36:57;;;;;;;4.53;2.28;;;20.30;48.20;;;;;;5045362;28;20037;-57
2022/03/05 05:39:25;;;;;;;3.13;2.92;;;20.30;48.90;;;;;;5045877;28;20059;-60
2022/03/05 05:41:52;;;;;;;2.25;2.13;;;20.30;48.30;;;;;;5046326;28;20037;-60
2022/03/05 05:44:19;;;;;;;2.53;2.33;;;20.30;48.30;;;;;;5042283;28;20570;-59
2022/03/05 05:46:47;;;;;;;3.30;2.42;;;20.30;48.30;;;;;;5048058;28;20044;-60
2022/03/05 05:49:14;;;;;;;2.92;2.55;;;20.30;48.30;;;;;;5046059;28;20068;-58
2022/03/05 05:51:41;;;;;;;3.20;2.65;;;20.30;48.30;;;;;;5043127;28;20051;-59
2022/03/05 05:54:08;;;;;;;2.88;2.67;;;20.30;48.30;;;;;;5045731;28;20051;-58
2022/03/05 05:56:36;;;;;;;9.63;3.28;;;20.30;48.30;;;;;;5044816;28;20037;-59
2022/03/05 05:59:05;;;;;;;2.72;2.50;;;20.30;48.30;;;;;;5046289;28;20184;-59
2022/03/05 06:01:32;;;;;;;2.28;2.03;;;20.30;48.30;;;;;;5045611;28;20045;-60
2022/03/05 06:04:01;;;;;;;2.38;2.10;;;20.30;48.40;;;;;;5045863;28;20033;-60
2022/03/05 06:06:28;;;;;;;4.13;3.67;;;20.30;48.40;;;;;;5045643;28;20528;-60
2022/03/05 06:08:55;;;;;;;3.00;2.65;;;20.30;48.40;;;;;;5045690;28;20033;-61
2022/03/05 06:11:22;;;;;;;4.93;3.03;;;20.30;48.40;;;;;;5045568;28;20143;-60
2022/03/05 06:13:50;;;;;;;3.00;1.80;;;20.30;48.40;;;;;;5047777;28;20041;-60
2022/03/05 06:16:17;;;;;;;2.65;2.42;;;20.30;48.40;;;;;;5046636;28;20125;-58
2022/03/05 06:18:44;;;;;;;2.60;2.45;;;20.30;48.40;;;;;;5044693;28;20037;-59
2022/03/05 06:21:13;;;;;;;3.22;2.47;;;20.20;48.40;;;;;;5045702;28;20535;-59
2022/03/05 06:23:40;;;;;;;1.80;1.70;;;20.30;48.40;;;;;;5043128;28;20039;-60
2022/03/05 06:26:07;;;;;;;4.85;2.78;;;20.30;48.40;;;;;;5045254;28;20183;-60
2022/03/05 06:28:34;;;;;;;4.93;2.45;;;20.30;48.40;;;;;;5047217;28;20041;-60
2022/03/05 06:31:02;;;;;;;3.22;3.03;;;20.20;48.40;;;;;;5042819;28;20081;-60
2022/03/05 06:33:29;;;;;;;2.72;2.17;;;20.20;48.40;;;;;;5043354;28;20041;-61
2022/03/05 06:35:57;;;;;;;3.13;2.60;;;20.20;48.40;;;;;;5039187;28;20041;-61
2022/03/05 06:38:25;;;;;;;15.70;4.35;;;20.30;48.40;;;;;;5043933;28;20090;-59
2022/03/05 06:40:52;;;;;;;3.10;1.90;;;20.30;48.50;;;;;;5043383;28;20037;-61
2022/03/05 06:43:19;;;;;;;6.88;3.40;;;20.30;48.50;;;;;;5046229;28;20497;-60
2022/03/05 06:45:47;;;;;;;5.47;1.70;;;20.40;48.60;;;;;;5041987;28;20053;-52
2022/03/05 06:48:15;;;;;;;2.33;1.92;;;20.50;48.60;;;;;;5044557;28;20037;-56
2022/03/05 06:50:42;;;;;;;3.63;2.05;;;20.60;48.60;;;;;;5044445;28;20124;-49
2022/03/05 06:53:09;;;;;;;2.15;2.05;;;20.70;48.50;;;;;;5043293;28;20045;-48
2022/03/05 06:55:39;;;;;;;6.80;2.45;;;20.70;48.40;;;;;;5046770;28;20048;-46
2022/03/05 06:58:06;;;;;;;5.50;2.58;;;20.80;48.30;;;;;;5044821;28;20033;-45
2022/03/05 07:00:33;;;;;;;5.35;2.22;;;20.90;48.10;;;;;;5044669;28;20036;-48
2022/03/05 07:03:00;;;;;;;3.45;1.33;;;20.90;48.00;;;;;;5044539;28;20043;-45
2022/03/05 07:05:27;;;;;;;2.08;1.98;;;21.00;48.00;;;;;;5045038;28;20040;-50
2022/03/05 07:07:54;;;;;;;8.00;2.22;;;21.00;47.80;;;;;;5042709;28;20048;-47
2022/03/05 07:10:22;;;;;;;3.08;2.05;;;21.10;47.70;;;;;;5050388;28;20037;-45
2022/03/05 07:12:50;;;;;;;9.30;1.73;;;21.10;47.60;;;;;;5049041;28;20044;-50
2022/03/05 07:15:18;;;;;;;8.02;3.25;;;21.10;47.50;;;;;;5049241;28;20679;-47
2022/03/05 07:17:49;;;;;;;9.68;3.72;;;21.10;49.50;;;;;;5048407;28;20574;-51
2022/03/05 07:20:16;;;;;;;5.78;3.35;;;21.10;50.40;;;;;;5050539;28;20048;-54
2022/03/05 07:22:45;;;;;;;5.70;2.50;;;21.10;50.70;;;;;;5050864;28;20050;-50
2022/03/05 07:25:14;;;;;;;11.55;2.58;;;21.00;50.80;;;;;;5049595;28;20045;-49
2022/03/05 07:27:42;;;;;;;4.32;2.70;;;21.00;51.00;;;;;;5047823;28;20559;-47
2022/03/05 07:30:11;;;;;;;8.50;3.58;;;20.90;51.10;;;;;;5049247;28;20536;-48
2022/03/05 07:32:38;;;;;;;5.00;3.28;;;20.90;51.30;;;;;;5049102;28;20493;-47
2022/03/05 07:35:07;;;;;;;3.97;2.92;;;20.90;51.50;;;;;;5049498;28;20052;-46
2022/03/05 07:37:35;;;;;;;15.63;2.55;;;20.90;51.80;;;;;;5049698;28;20039;-47
2022/03/05 07:40:03;;;;;;;4.47;2.60;;;20.90;51.90;;;;;;5048404;28;20122;-48
2022/03/05 07:42:31;;;;;;;9.88;2.05;;;20.90;52.10;;;;;;5048891;28;20502;-52
2022/03/05 07:44:58;;;;;;;2.88;1.70;;;20.90;52.10;;;;;;5049261;28;20037;-48
2022/03/05 07:47:26;;;;;;;4.82;2.70;;;20.90;52.70;;;;;;5048325;28;20040;-49
2022/03/05 07:49:53;;;;;;;3.30;2.47;;;20.90;52.20;;;;;;5049574;28;20044;-49
2022/03/05 07:52:20;;;;;;;3.58;2.63;;;20.80;52.10;;;;;;5045859;28;20402;-52
2022/03/05 07:54:47;;;;;;;2.17;1.70;;;20.80;52.10;;;;;;5048622;28;20037;-48
2022/03/05 07:57:14;;;;;;;3.75;2.60;;;20.80;52.70;;;;;;5046732;28;20528;-47
2022/03/05 07:59:42;;;;;;;2.67;1.85;;;20.80;52.10;;;;;;5048030;28;20043;-50
2022/03/05 08:02:10;;;;;;;5.85;2.60;;;20.80;52.20;;;;;;5048644;28;20056;-51
2022/03/05 08:04:39;;;;;;;4.07;2.17;;;20.80;52.00;;;;;;5050430;28;20080;-48
2022/03/05 08:07:07;;;;;;;4.25;2.33;;;20.80;51.90;;;;;;5048358;28;20041;-46
2022/03/05 08:09:35;;;;;;;3.38;1.48;;;20.80;51.80;;;;;;5048349;28;20112;-48
2022/03/05 08:12:03;;;;;;;2.10;1.58;;;20.80;51.70;;;;;;5048585;28;20049;-48
2022/03/05 08:14:31;;;;;;;4.53;1.98;;;20.80;51.60;;;;;;5047914;28;20041;-50
2022/03/05 08:16:58;;;;;;;2.60;1.40;;;20.80;51.60;;;;;;5047899;28;20073;-49
2022/03/05 08:19:25;;;;;;;1.92;1.83;;;20.80;51.50;;;;;;5048030;28;20068;-49
2022/03/05 08:21:53;;;;;;;2.47;2.28;;;20.80;51.40;;;;;;5048278;28;20033;-48
2022/03/05 08:24:20;;;;;;;5.50;2.28;;;20.80;51.40;;;;;;5047997;28;20053;-49
2022/03/05 08:26:47;;;;;;;2.20;1.85;;;20.80;51.30;;;;;;5048066;28;20122;-48
2022/03/05 08:29:15;;;;;;;2.75;2.35;;;20.80;51.20;;;;;;5047745;28;20065;-49
2022/03/05 08:31:42;;;;;;;2.35;1.95;;;20.80;51.20;;;;;;5045957;28;20041;-50
2022/03/05 08:34:09;;;;;;;4.38;1.88;;;20.80;51.10;;;;;;5046799;28;20056;-46
2022/03/05 08:36:36;;;;;;;2.28;2.00;;;20.80;51.00;;;;;;5047495;28;20041;-51
2022/03/05 08:39:05;;;;;;;4.00;1.83;;;20.80;50.90;;;;;;5044898;28;20110;-47
2022/03/05 08:41:32;;;;;;;3.65;2.05;;;20.90;50.90;;;;;;5044737;28;20041;-49
2022/03/05 08:43:59;;;;;;;3.42;2.47;;;20.80;50.60;;;;;;5047945;28;20045;-49
2022/03/05 08:46:27;;;;;;;4.53;1.67;;;20.80;50.50;;;;;;5048459;28;20048;-48
2022/03/05 08:48:54;;;;;;;1.92;1.80;;;20.80;50.40;;;;;;5047639;28;20044;-46
2022/03/05 08:51:21;;;;;;;2.85;2.70;;;20.80;50.30;;;;;;5047183;28;20052;-48
2022/03/05 08:53:48;;;;;;;1.85;1.73;;;20.80;50.20;;;;;;5047570;28;20041;-48
2022/03/05 08:56:16;;;;;;;2.45;2.30;;;20.90;50.20;;;;;;5047574;28;20043;-50
2022/03/05 08:58:43;;;;;;;2.83;1.83;;;20.90;50.10;;;;;;5048942;28;20045;-51
2022/03/05 09:01:10;;;;;;;4.05;2.42;;;20.90;50.00;;;;;;5047083;28;20055;-52
2022/03/05 09:03:37;;;;;;;4.00;2.90;;;20.90;50.00;;;;;;5047341;28;20037;-48
2022/03/05 09:06:04;;;;;;;1.98;1.83;;;20.90;49.80;;;;;;5047269;28;20048;-48
2022/03/05 09:08:31;;;;;;;2.00;1.90;;;20.90;49.80;;;;;;5047611;28;20041;-47
2022/03/05 09:10:58;;;;;;;2.30;2.15;;;21.00;49.70;;;;;;5047168;28;20045;-52
2022/03/05 09:13:27;;;;;;;2.72;2.08;;;21.00;49.60;;;;;;5048409;28;20151;-53
2022/03/05 09:15:54;;;;;;;2.42;2.13;;;21.00;49.50;;;;;;5043652;28;20459;-47
2022/03/05 09:18:21;;;;;;;4.28;2.28;;;21.00;49.40;;;;;;5047152;28;20053;-49
2022/03/05 09:20:48;;;;;;;3.30;2.45;;;21.10;49.40;;;;;;5047431;28;20045;-47
2022/03/05 09:23:16;;;;;;;2.95;2.30;;;21.10;49.20;;;;;;5046912;28;20120;-51
2022/03/05 09:25:43;;;;;;;2.20;1.92;;;21.10;49.10;;;;;;5048805;28;20414;-49
2022/03/05 09:28:10;;;;;;;2.65;2.55;;;21.20;49.00;;;;;;5046385;28;20041;-50
2022/03/05 09:30:40;;;;;;;4.47;2.97;;;21.20;48.80;;;;;;5046011;28;20414;-51
2022/03/05 09:33:07;;;;;;;2.88;2.22;;;21.20;48.70;;;;;;5047184;28;20124;-53
2022/03/05 09:35:35;;;;;;;2.70;2.50;;;21.20;48.60;;;;;;5046739;28;20041;-49
2022/03/05 09:38:02;;;;;;;3.42;2.53;;;21.30;48.50;;;;;;5043962;28;20099;-49
2022/03/05 09:40:30;;;;;;;2.95;2.75;;;21.40;48.40;;;;;;5048294;28;20075;-48
2022/03/05 09:42:57;;;;;;;4.70;3.00;;;21.30;48.20;;;;;;5046546;28;20597;-46
2022/03/05 09:45:24;;;;;;;3.25;2.72;;;21.40;48.10;;;;;;5046547;28;20044;-49
2022/03/05 09:47:53;;;;;;;2.75;2.55;;;21.40;48.00;;;;;;5046808;28;20140;-51
2022/03/05 09:50:20;;;;;;;2.85;2.65;;;21.50;47.90;;;;;;5046927;28;20510;-46
2022/03/05 09:52:47;;;;;;;3.45;2.97;;;21.50;47.70;;;;;;5048099;28;20049;-50
2022/03/05 09:55:15;;;;;;;2.50;2.30;;;21.60;47.60;;;;;;5045449;28;20118;-48
2022/03/05 09:57:42;;;;;;;2.53;1.85;;;21.60;47.60;;;;;;5040940;28;20090;-49
2022/03/05 10:00:10;;;;;;;3.53;2.38;;;21.60;47.40;;;;;;5039862;28;20056;-49
2022/03/05 10:02:38;;;;;;;3.03;2.83;;;21.70;47.30;;;;;;5039506;28;20036;-48
2022/03/05 10:05:20;;;;;;;2.70;2.50;;;21.70;47.20;;;;;;5043679;28;20421;-48
2022/03/05 10:08:08;;;;;;;3.83;2.70;;;21.80;47.00;;;;;;5048090;28;20037;-49
2022/03/05 10:10:49;;;;;;;1.73;1.63;;;21.80;46.90;;;;;;5046569;28;20040;-49
2022/03/05 10:13:23;;;;;;;2.05;1.95;;;21.80;46.70;;;;;;5046544;28;20140;-48
2022/03/05 10:15:52;;;;;;;2.83;2.55;;;21.80;46.70;;;;;;5042251;28;20058;-47
2022/03/05 10:18:25;;;;;;;3.03;2.40;;;21.90;46.60;;;;;;5039100;28;20494;-48
2022/03/05 10:20:54;;;;;;;6.30;2.75;;;21.90;46.50;;;;;;5040761;28;20434;-47
2022/03/05 10:23:21;;;;;;;4.95;3.45;;;21.90;46.30;;;;;;5042673;28;20060;-48
2022/03/05 10:25:50;;;;;;;5.30;3.28;;;22.00;46.30;;;;;;5047794;28;20041;-47
2022/03/05 10:28:19;;;;;;;4.18;3.17;;;22.00;46.20;;;;;;5046684;28;20361;-48
2022/03/05 10:30:48;;;;;;;5.75;3.45;;;22.00;46.10;;;;;;5045600;28;20048;-48
2022/03/05 10:33:29;;;;;;;3.83;3.25;;;22.10;45.90;;;;;;5045630;28;20060;-47
2022/03/05 10:35:59;;;;;;;3.40;2.95;;;22.10;45.70;;;;;;5045634;28;20041;-47
2022/03/05 10:38:45;;;;;;;3.97;3.28;;;22.10;45.70;;;;;;5042783;28;20045;-48
2022/03/05 10:41:13;;;;;;;4.43;3.33;;;22.20;45.60;;;;;;5045483;28;20045;-48
2022/03/05 10:43:40;;;;;;;5.00;3.58;;;22.20;45.50;;;;;;5047423;28;20041;-48
2022/03/05 10:46:07;;;;;;;3.95;3.40;;;22.20;45.40;;;;;;5045199;28;20045;-46
2022/03/05 10:48:36;;;;;;;4.80;3.20;;;22.30;45.40;;;;;;5045669;28;20043;-48
2022/03/05 10:51:10;;;;;;;6.68;3.75;;;22.30;45.30;;;;;;5045108;28;20075;-49
2022/03/05 10:53:40;;;;;;;4.25;3.20;;;22.30;45.20;;;;;;5045458;28;20036;-49
2022/03/05 10:56:29;;;;;;;4.43;3.75;;;22.30;45.10;;;;;;5045596;28;20095;-51
2022/03/05 10:59:10;;;;;;;4.85;3.55;;;22.40;45.00;;;;;;5043027;28;20052;-51
2022/03/05 11:01:39;;;;;;;6.07;3.65;;;22.40;45.00;;;;;;5046852;28;20091;-52
2022/03/05 11:04:07;;;;;;;5.32;3.67;;;22.40;44.90;;;;;;5045252;28;20032;-53
2022/03/05 11:06:38;;;;;;;4.85;3.10;;;22.40;44.90;;;;;;5045104;28;20801;-47
2022/03/05 11:09:07;;;;;;;5.85;3.35;;;22.50;44.90;;;;;;5044994;28;20055;-53
2022/03/05 11:11:37;;;;;;;4.65;3.67;;;22.50;44.90;;;;;;5045483;28;20634;-51
2022/03/05 11:14:05;;;;;;;5.30;3.13;;;22.50;44.80;;;;;;5045763;28;20045;-51
2022/03/05 11:16:33;;;;;;;3.78;2.75;;;22.50;44.70;;;;;;5044788;28;20045;-50
2022/03/05 11:19:01;;;;;;;5.47;3.85;;;22.60;44.70;;;;;;5045365;28;20505;-48
2022/03/05 11:21:29;;;;;;;5.53;3.45;;;22.60;44.70;;;;;;5045264;28;20095;-52
2022/03/05 11:23:58;;;;;;;5.60;3.60;;;22.60;44.60;;;;;;5044925;28;20041;-48
2022/03/05 11:26:28;;;;;;;4.70;3.38;;;22.60;44.50;;;;;;5045360;28;20527;-49
2022/03/05 11:28:55;;;;;;;3.22;2.70;;;22.70;44.50;;;;;;5045947;28;20660;-51
2022/03/05 11:31:23;;;;;;;6.43;3.80;;;22.70;44.50;;;;;;5046044;28;20049;-50
2022/03/05 11:33:52;;;;;;;3.90;2.67;;;22.70;44.30;;;;;;5045385;28;20136;-49
2022/03/05 11:36:31;;;;;;;7.85;4.00;;;22.80;44.30;;;;;;5045545;28;20041;-47
2022/03/05 11:39:20;;;;;;;5.32;3.33;;;22.80;44.10;;;;;;5035381;28;20056;-48
2022/03/05 11:42:06;;;;;;;6.97;3.53;;;22.90;44.10;;;;;;5045768;28;20037;-47
2022/03/05 11:44:40;;;;;;;4.18;2.85;;;22.90;44.00;;;;;;5044272;28;20103;-47
2022/03/05 11:47:38;;;;;;;3.22;2.90;;;22.90;43.90;;;;;;5045416;28;20041;-49
2022/03/05 11:50:17;;;;;;;9.35;4.18;;;22.90;43.80;;;;;;5043263;28;20048;-48
2022/03/05 11:53:07;;;;;;;3.50;2.67;;;23.00;43.80;;;;;;5045643;28;20904;-48
2022/03/05 11:55:41;;;;;;;7.25;3.08;;;23.00;43.70;;;;;;5048202;28;20186;-50
2022/03/05 11:58:34;;;;;;;5.70;3.83;;;23.00;43.60;;;;;;5048944;28;20094;-47
2022/03/05 12:01:34;;;;;;;5.93;2.83;;;23.10;43.60;;;;;;5048625;28;20053;-48
2022/03/05 12:04:17;;;;;;;3.40;2.70;;;23.10;43.50;;;;;;5048802;28;20911;-51
2022/03/05 12:06:45;;;;;;;5.53;2.70;;;23.10;43.60;;;;;;5048611;28;20148;-52
2022/03/05 12:09:35;;;;;;;4.22;2.53;;;23.10;43.50;;;;;;5048360;28;20052;-48
2022/03/05 12:12:06;;;;;;;4.78;3.03;;;23.20;43.50;;;;;;5043379;28;20480;-52
2022/03/05 12:15:11;;;;;;;2.83;2.53;;;23.20;43.50;;;;;;5048845;28;20056;-52
2022/03/05 12:17:46;;;;;;;3.17;2.88;;;23.30;43.40;;;;;;5048200;28;20413;-49
2022/03/05 12:20:15;;;;;;;3.77;2.80;;;23.30;43.40;;;;;;5049163;28;20122;-49
2022/03/05 12:22:58;;;;;;;6.20;2.53;;;23.30;43.40;;;;;;5049769;28;20832;-48
2022/03/05 12:25:27;;;;;;;2.67;2.20;;;23.30;43.30;;;;;;5048837;28;20513;-52
2022/03/05 12:27:56;;;;;;;3.13;1.83;;;23.40;43.30;;;;;;5048678;28;20036;-48
2022/03/05 12:30:27;;;;;;;3.65;2.90;;;23.40;43.20;;;;;;5048249;28;20041;-52
2022/03/05 12:32:55;;;;;;;2.08;1.70;;;23.40;43.10;;;;;;5048324;28;20045;-52
2022/03/05 12:35:22;;;;;;;4.00;2.33;;;23.40;43.10;;;;;;5048625;28;20615;-51
2022/03/05 12:37:50;;;;;;;3.75;2.63;;;23.50;43.00;;;;;;5043883;28;20047;-47
2022/03/05 12:40:17;;;;;;;2.42;2.20;;;23.50;43.00;;;;;;5047733;28;20037;-49
2022/03/05 12:42:46;;;;;;;2.92;2.00;;;23.50;42.90;;;;;;5047832;28;20037;-52
2022/03/05 12:45:20;;;;;;;2.90;2.15;;;23.50;42.80;;;;;;5048332;28;20775;-49
2022/03/05 12:47:47;;;;;;;3.20;2.33;;;23.60;42.80;;;;;;5048266;28;20123;-50
2022/03/05 12:50:30;;;;;;;2.65;2.00;;;23.60;42.70;;;;;;5047528;28;20037;-48
2022/03/05 12:53:06;;;;;;;3.25;2.22;;;23.70;42.70;;;;;;5048543;28;20041;-49
2022/03/05 12:55:36;;;;;;;4.30;2.28;;;23.70;42.70;;;;;;5047616;28;20041;-52
2022/03/05 12:58:07;;;;;;;1.95;1.60;;;23.70;42.60;;;;;;5046029;28;20068;-48
2022/03/05 13:00:37;;;;;;;2.10;2.00;;;23.70;42.50;;;;;;5040259;28;20480;-53